»·PEaware :: N323DE KSNA-KPRC

N323DE :: KSNA-KPRC

FLIGHT INFORMATION

Flight Status: Arrived
Operator: Privately registered:
United States
More flights under this callsign
Pilot: John H. (10732)
Aircraft: Unknown
(LEG2)
More flights by this aircraft type
Origin: KSNA John Wayne-Orange Co
United States
Destination: KPRC Love
United States
More flights between these airports :: More routes between these airports
Route: +
File this flight plan on PilotEdge
Remarks:
Altitude:
(Current/Filed)
15,500ft
Speed:
(Current/Filed)
250kts
Departed: 19-Jun-19 06:22 PM
Arrived: 19-Jun-19 07:28 PM
Distance/Time
Traveled:
277nm/1:06
Distance/Time
To Go:
Arrived

Flight Plot

Page will automatically refresh every two minutes.

Flight plan parsing failed; only flown route is shown


Map Options




Map Legend


Flown Route
Filed Route
Departure Airport
Arrival Airport
Navaid (VOR, NDB)
Fix

Horizontal Profiles

Position Reports

Time Latitude Longitude Heading Altitude Ground
Speed
19-Jun-19 18:13 33.675405 -117.871528 224 59ft 0kts
19-Jun-19 18:13 33.675405 -117.871528 224 59ft 0kts
19-Jun-19 18:14 33.675405 -117.871528 224 59ft 0kts
19-Jun-19 18:16 33.675405 -117.871528 224 59ft 0kts
19-Jun-19 18:16 33.675405 -117.871528 224 59ft 0kts
19-Jun-19 18:17 33.675405 -117.871528 224 59ft 0kts
19-Jun-19 18:19 33.675405 -117.871528 224 59ft 0kts
19-Jun-19 18:19 33.677564 -117.869237 25 59ft 40kts
19-Jun-19 18:20 33.680787 -117.866332 113 59ft 0kts
19-Jun-19 18:21 33.663032 -117.874664 182 520ft 148kts
19-Jun-19 18:22 33.651287 -117.826046 93 1711ft 206kts
19-Jun-19 18:23 33.647982 -117.750351 95 2184ft 226kts
19-Jun-19 18:24 33.665121 -117.683027 87 3751ft 209kts
19-Jun-19 18:25 33.665988 -117.618485 84 6205ft 182kts
19-Jun-19 18:26 33.684757 -117.564305 73 8699ft 180kts
19-Jun-19 18:27 33.702152 -117.505590 70 11216ft 192kts
19-Jun-19 18:28 33.721857 -117.444509 70 13735ft 198kts
19-Jun-19 18:29 33.742631 -117.380503 69 15506ft 233kts
19-Jun-19 18:30 33.769506 -117.297483 69 15495ft 290kts
19-Jun-19 18:31 33.799951 -117.203468 69 15491ft 308kts
19-Jun-19 18:32 33.831050 -117.107126 69 15493ft 310kts
19-Jun-19 18:33 33.861874 -117.011339 69 15496ft 303kts
19-Jun-19 18:34 33.892156 -116.916959 68 15493ft 303kts
19-Jun-19 18:35 33.922801 -116.821153 69 15508ft 306kts
19-Jun-19 18:36 33.956843 -116.728943 53 15679ft 300kts
19-Jun-19 18:37 34.010972 -116.652627 49 15676ft 300kts
19-Jun-19 18:38 34.064768 -116.575971 49 15674ft 300kts
19-Jun-19 18:39 34.103952 -116.489672 88 15678ft 298kts
19-Jun-19 18:40 34.104845 -116.389425 88 15666ft 299kts
19-Jun-19 18:41 34.106573 -116.297063 89 17308ft 254kts
19-Jun-19 18:42 34.107778 -116.208023 89 17652ft 278kts
19-Jun-19 18:43 34.108810 -116.120381 89 17646ft 290kts
19-Jun-19 18:44 34.109892 -116.021962 89 17648ft 295kts
19-Jun-19 18:45 34.110912 -115.922018 89 17631ft 301kts
19-Jun-19 18:46 34.111881 -115.818794 89 17635ft 310kts
19-Jun-19 18:47 34.149200 -115.730059 37 17611ft 310kts
19-Jun-19 18:48 34.212308 -115.658795 42 17597ft 310kts
19-Jun-19 18:49 34.275144 -115.586962 41 17586ft 310kts
19-Jun-19 18:50 34.342099 -115.522588 20 17556ft 307kts
19-Jun-19 18:51 34.422146 -115.487788 18 17521ft 304kts
19-Jun-19 18:52 34.501640 -115.453112 18 17528ft 303kts
19-Jun-19 18:53 34.580933 -115.418509 18 17517ft 303kts
19-Jun-19 18:54 34.660218 -115.383846 18 17540ft 302kts
19-Jun-19 18:55 34.739362 -115.347782 27 17536ft 304kts
19-Jun-19 18:56 34.782212 -115.262996 89 17510ft 311kts
19-Jun-19 18:57 34.778975 -115.158191 88 17508ft 310kts
19-Jun-19 18:58 34.778227 -115.053165 89 17501ft 310kts
19-Jun-19 18:59 34.776422 -114.948448 90 17500ft 310kts
19-Jun-19 19:00 34.774344 -114.843528 90 17505ft 310kts
19-Jun-19 19:01 34.772148 -114.738826 90 17512ft 310kts
19-Jun-19 19:02 34.769873 -114.634949 90 17517ft 310kts
19-Jun-19 19:03 34.767469 -114.529366 90 17524ft 310kts
19-Jun-19 19:04 34.765172 -114.432067 90 17525ft 310kts
19-Jun-19 19:05 34.762606 -114.327092 90 17529ft 310kts
19-Jun-19 19:06 34.761995 -114.222622 85 17532ft 309kts
19-Jun-19 19:07 34.754948 -114.117973 92 17537ft 310kts
19-Jun-19 19:08 34.751319 -114.013028 90 17539ft 310kts
19-Jun-19 19:09 34.748407 -113.908288 90 17552ft 310kts
19-Jun-19 19:10 34.745417 -113.803900 90 17595ft 310kts
19-Jun-19 19:11 34.742308 -113.698857 90 17602ft 310kts
19-Jun-19 19:12 34.739106 -113.593796 90 17499ft 312kts
19-Jun-19 19:13 34.735799 -113.488421 91 17479ft 311kts
19-Jun-19 19:14 34.732318 -113.380163 91 16464ft 332kts
19-Jun-19 19:15 34.728500 -113.265652 91 14969ft 345kts
19-Jun-19 19:16 34.724469 -113.147728 91 13467ft 350kts
19-Jun-19 19:17 34.720351 -113.030104 91 11968ft 346kts
19-Jun-19 19:18 34.717370 -112.914713 92 10491ft 336kts
19-Jun-19 19:19 34.713365 -112.803464 93 9491ft 322kts
19-Jun-19 19:20 34.709379 -112.697861 93 9420ft 306kts
19-Jun-19 19:21 34.705359 -112.594352 98 8955ft 309kts
19-Jun-19 19:22 34.682667 -112.495656 109 7465ft 300kts
19-Jun-19 19:23 34.692518 -112.411308 46 6537ft 240kts
19-Jun-19 19:24 34.717630 -112.363573 126 6504ft 134kts
19-Jun-19 19:25 34.695708 -112.377022 234 5998ft 118kts
19-Jun-19 19:26 34.672339 -112.403618 220 5205ft 103kts
19-Jun-19 19:27 34.662775 -112.414351 311 5048ft 0kts
19-Jun-19 19:28 34.660508 -112.416927 217 5048ft 17kts
19-Jun-19 19:29 34.657155 -112.421271 308 5048ft 9kts
19-Jun-19 19:30 34.657541 -112.421198 133 5048ft 0kts

Navigation Log

Ident Type
Flight plan parsing failed, navigation log unavailable